createdAt,value
2018-07-19T00:00:48.165Z,1011.50
2018-07-19T00:01:48.145Z,1011.47
2018-07-19T00:02:48.158Z,1011.50
2018-07-19T00:03:48.444Z,1011.51
2018-07-19T00:04:48.105Z,1011.49
2018-07-19T00:05:48.085Z,1011.49
2018-07-19T00:06:48.072Z,1011.48
2018-07-19T00:07:48.057Z,1011.51
2018-07-19T00:08:48.042Z,1011.43
2018-07-19T00:09:48.055Z,1011.47
2018-07-19T00:10:48.389Z,1011.45
2018-07-19T00:11:48.025Z,1011.47
2018-07-19T00:12:48.010Z,1011.45
2018-07-19T00:13:48.004Z,1011.45
2018-07-19T00:14:47.951Z,1011.46
2018-07-19T00:15:47.936Z,1011.42
2018-07-19T00:16:47.930Z,1011.44
2018-07-19T00:17:48.206Z,1011.40
2018-07-19T00:18:47.927Z,1011.40
2018-07-19T00:19:47.877Z,1011.41
2018-07-19T00:20:47.864Z,1011.41
2018-07-19T00:21:47.847Z,1011.39
2018-07-19T00:22:47.831Z,1011.39
2018-07-19T00:23:47.816Z,1011.40
2018-07-19T00:24:48.102Z,1011.43
2018-07-19T00:25:47.816Z,1011.41
2018-07-19T00:26:47.799Z,1011.44
2018-07-19T00:27:47.757Z,1011.40
2018-07-19T00:28:47.740Z,1011.43
2018-07-19T00:29:47.725Z,1011.45
2018-07-19T00:30:48.137Z,1011.47
2018-07-19T00:31:47.767Z,1011.39
2018-07-19T00:32:47.758Z,1011.41
2018-07-19T00:33:47.772Z,1011.41
2018-07-19T00:34:47.773Z,1011.40
2018-07-19T00:35:47.706Z,1011.40
2018-07-19T00:36:47.919Z,1011.36
2018-07-19T00:37:47.603Z,1011.37
2018-07-19T00:38:47.588Z,1011.36
2018-07-19T00:39:47.573Z,1011.37
2018-07-19T00:40:47.557Z,1011.35
2018-07-19T00:41:47.542Z,1011.36
2018-07-19T00:42:47.779Z,1011.34
2018-07-19T00:43:47.511Z,1011.34
2018-07-19T00:44:47.501Z,1011.36
2018-07-19T00:45:47.480Z,1011.35
2018-07-19T00:46:47.464Z,1011.35
2018-07-19T00:47:47.449Z,1011.38
2018-07-19T00:48:47.736Z,1011.35
2018-07-19T00:49:47.418Z,1011.33
2018-07-19T00:50:47.402Z,1011.30
2018-07-19T00:51:47.390Z,1011.30
2018-07-19T00:52:47.373Z,1011.33
2018-07-19T00:53:47.358Z,1011.31
2018-07-19T00:54:47.644Z,1011.29
2018-07-19T00:55:47.326Z,1011.28
2018-07-19T00:56:47.312Z,1011.27
2018-07-19T00:57:47.295Z,1011.27
2018-07-19T00:58:47.415Z,1011.24
2018-07-19T01:00:47.550Z,1011.26
2018-07-19T01:01:47.237Z,1011.27
2018-07-19T01:02:47.218Z,1011.27
2018-07-19T01:03:47.203Z,1011.26
2018-07-19T01:04:47.188Z,1011.27
2018-07-19T01:05:47.172Z,1011.23
2018-07-19T01:06:47.457Z,1011.23
2018-07-19T01:10:47.487Z,1011.27
2018-07-19T01:11:47.436Z,1011.26
2018-07-19T01:12:47.408Z,1011.28
2018-07-19T01:13:48.084Z,1011.26
2018-07-19T01:14:47.324Z,1011.26
2018-07-19T01:15:47.311Z,1011.27
2018-07-19T01:16:53.605Z,1011.26
2018-07-19T01:17:47.274Z,1011.28
2018-07-19T01:18:47.161Z,1011.26
2018-07-19T01:19:47.241Z,1011.28
2018-07-19T01:20:47.549Z,1011.30
2018-07-19T01:21:47.182Z,1011.32
2018-07-19T01:22:47.158Z,1011.27
2018-07-19T01:23:47.080Z,1011.30
2018-07-19T01:24:47.072Z,1011.28
2018-07-19T01:25:47.047Z,1011.29
2018-07-19T01:26:47.042Z,1011.36
2018-07-19T01:27:47.430Z,1011.30
2018-07-19T01:28:47.063Z,1011.29
2018-07-19T01:29:46.992Z,1011.25
2018-07-19T01:30:47.208Z,1011.31
2018-07-19T01:31:47.054Z,1011.29
2018-07-19T01:32:46.937Z,1011.25
2018-07-19T01:33:46.961Z,1011.24
2018-07-19T01:34:47.370Z,1011.26
2018-07-19T01:35:46.893Z,1011.25
2018-07-19T01:36:46.964Z,1011.25
2018-07-19T01:37:46.951Z,1011.26
2018-07-19T01:38:46.931Z,1011.27
2018-07-19T01:39:46.926Z,1011.23
2018-07-19T01:40:46.966Z,1011.23
2018-07-19T01:41:48.831Z,1011.21
2018-07-19T01:42:46.793Z,1011.26
2018-07-19T01:43:46.772Z,1011.21
2018-07-19T01:44:46.897Z,1011.22
2018-07-19T01:45:46.860Z,1011.23
2018-07-19T01:46:47.067Z,1011.20
2018-07-19T01:47:46.830Z,1011.24
2018-07-19T01:48:47.272Z,1011.19
2018-07-19T01:49:46.880Z,1011.18
2018-07-19T01:50:46.871Z,1011.17
2018-07-19T01:51:46.646Z,1011.15
2018-07-19T01:52:46.771Z,1011.16
2018-07-19T01:53:46.583Z,1011.13
2018-07-19T01:55:46.957Z,1011.13
2018-07-19T01:56:46.577Z,1011.12
2018-07-19T01:57:46.567Z,1011.07
2018-07-19T01:58:46.617Z,1011.11
2018-07-19T01:59:46.527Z,1011.14
2018-07-19T02:00:46.529Z,1011.12
2018-07-19T02:01:46.754Z,1011.12
2018-07-19T02:02:46.394Z,1011.09
2018-07-19T02:03:46.305Z,1011.13
2018-07-19T02:04:46.338Z,1011.14
2018-07-19T02:05:46.275Z,1011.13
2018-07-19T02:06:46.358Z,1011.14
2018-07-19T02:07:46.669Z,1011.11
2018-07-19T02:08:46.286Z,1011.12
2018-07-19T02:09:46.211Z,1011.17
2018-07-19T02:10:46.252Z,1011.16
2018-07-19T02:11:46.243Z,1011.17
2018-07-19T02:12:46.274Z,1011.18
2018-07-19T02:13:46.608Z,1011.12
2018-07-19T02:14:46.158Z,1011.14
2018-07-19T02:15:46.228Z,1011.19
2018-07-19T02:16:46.286Z,1011.15
2018-07-19T02:17:46.083Z,1011.16
2018-07-19T02:18:46.134Z,1011.16
2018-07-19T02:19:48.251Z,1011.16
2018-07-19T02:20:47.484Z,1011.14
2018-07-19T02:21:47.505Z,1011.19
2018-07-19T02:22:46.067Z,1011.18
2018-07-19T02:23:46.057Z,1011.19
2018-07-19T02:24:46.033Z,1011.20
2018-07-19T02:25:46.371Z,1011.22
2018-07-19T02:26:46.016Z,1011.23
2018-07-19T02:27:45.999Z,1011.24
2018-07-19T02:28:47.464Z,1011.27
2018-07-19T02:30:47.713Z,1011.21
2018-07-19T02:31:47.094Z,1011.21
2018-07-19T02:32:47.388Z,1011.22
2018-07-19T02:33:47.440Z,1011.20
2018-07-19T02:34:47.227Z,1011.22
2018-07-19T02:35:45.891Z,1011.24
2018-07-19T02:36:45.849Z,1011.25
2018-07-19T02:37:46.198Z,1011.26
2018-07-19T02:38:45.849Z,1011.25
2018-07-19T02:39:45.803Z,1011.27
2018-07-19T02:40:45.783Z,1011.29
2018-07-19T02:42:45.749Z,1011.29
2018-07-19T02:43:45.789Z,1011.30
2018-07-19T02:44:46.120Z,1011.29
2018-07-19T02:45:45.758Z,1011.27
2018-07-19T02:46:45.724Z,1011.25
2018-07-19T02:47:45.736Z,1011.25
2018-07-19T02:48:45.701Z,1011.21
2018-07-19T02:49:45.702Z,1011.25
2018-07-19T02:50:45.670Z,1011.19
2018-07-19T02:51:45.998Z,1011.19
2018-07-19T02:52:45.638Z,1011.23
2018-07-19T02:53:45.632Z,1011.17
2018-07-19T02:54:45.619Z,1011.23
2018-07-19T02:55:45.539Z,1011.18
2018-07-19T02:56:45.606Z,1011.22
2018-07-19T02:57:45.593Z,1011.18
2018-07-19T02:58:45.907Z,1011.17
2018-07-19T02:59:45.502Z,1011.19
2018-07-19T03:00:45.521Z,1011.15
2018-07-19T03:01:45.555Z,1011.17
2018-07-19T03:02:45.497Z,1011.17
2018-07-19T03:03:45.412Z,1011.14
2018-07-19T03:04:45.579Z,1011.20
2018-07-19T03:05:45.823Z,1011.17
2018-07-19T03:06:45.388Z,1011.20
2018-07-19T03:07:45.499Z,1011.18
2018-07-19T03:08:45.367Z,1011.21
2018-07-19T03:09:45.361Z,1011.18
2018-07-19T03:10:45.331Z,1011.22
2018-07-19T03:11:45.312Z,1011.19
2018-07-19T03:12:45.640Z,1011.20
2018-07-19T03:14:45.295Z,1011.23
2018-07-19T03:15:45.211Z,1011.22
2018-07-19T03:16:45.318Z,1011.18
2018-07-19T03:17:45.268Z,1011.20
2018-07-19T03:18:45.238Z,1011.20
2018-07-19T03:19:45.486Z,1011.18
2018-07-19T03:20:45.121Z,1011.21
2018-07-19T03:21:45.105Z,1011.25
2018-07-19T03:22:45.096Z,1011.22
2018-07-19T03:23:45.068Z,1011.25
2018-07-19T03:24:45.008Z,1011.28
2018-07-19T03:25:44.993Z,1011.25
2018-07-19T03:26:45.494Z,1011.25
2018-07-19T03:27:45.343Z,1011.23
2018-07-19T03:28:45.150Z,1011.25
2018-07-19T03:29:45.146Z,1011.23
2018-07-19T03:30:45.100Z,1011.24
2018-07-19T03:31:45.025Z,1011.24
2018-07-19T03:32:45.471Z,1011.24
2018-07-19T03:33:44.969Z,1011.25
2018-07-19T03:34:45.039Z,1011.26
2018-07-19T03:35:44.931Z,1011.24
2018-07-19T03:36:44.905Z,1011.23
2018-07-19T03:37:44.901Z,1011.22
2018-07-19T03:39:45.210Z,1011.27
2018-07-19T03:40:45.368Z,1011.26
2018-07-19T03:41:45.035Z,1011.27
2018-07-19T03:42:44.813Z,1011.25
2018-07-19T03:43:44.691Z,1011.30
2018-07-19T03:44:44.872Z,1011.32
2018-07-19T03:45:45.027Z,1011.27
2018-07-19T03:46:44.719Z,1011.28
2018-07-19T03:47:44.786Z,1011.29
2018-07-19T03:48:44.779Z,1011.30
2018-07-19T03:49:44.649Z,1011.28
2018-07-19T03:50:44.737Z,1011.32
2018-07-19T03:52:45.250Z,1011.31
2018-07-19T03:53:44.675Z,1011.32
2018-07-19T03:54:44.648Z,1011.31
2018-07-19T03:55:44.606Z,1011.30
2018-07-19T03:56:44.601Z,1011.31
2018-07-19T03:58:44.951Z,1011.32
2018-07-19T03:59:44.546Z,1011.32
2018-07-19T04:00:44.500Z,1011.32
2018-07-19T04:01:44.584Z,1011.34
2018-07-19T04:02:45.695Z,1011.36
2018-07-19T04:03:44.733Z,1011.36
2018-07-19T04:04:44.773Z,1011.39
2018-07-19T04:05:44.471Z,1011.38
2018-07-19T04:06:44.568Z,1011.38
2018-07-19T04:07:44.415Z,1011.41
2018-07-19T04:08:44.385Z,1011.40
2018-07-19T04:09:44.398Z,1011.39
2018-07-19T04:10:44.404Z,1011.37
2018-07-19T04:11:44.686Z,1011.37
2018-07-19T04:12:44.337Z,1011.34
2018-07-19T04:13:44.417Z,1011.35
2018-07-19T04:14:44.348Z,1011.33
2018-07-19T04:15:44.282Z,1011.32
2018-07-19T04:16:44.308Z,1011.35
2018-07-19T04:17:44.204Z,1011.40
2018-07-19T04:18:44.558Z,1011.37
2018-07-19T04:19:44.226Z,1011.38
2018-07-19T04:20:44.283Z,1011.40
2018-07-19T04:21:44.177Z,1011.39
2018-07-19T04:22:44.228Z,1011.43
2018-07-19T04:23:44.157Z,1011.44
2018-07-19T04:24:44.184Z,1011.41
2018-07-19T04:25:44.685Z,1011.40
2018-07-19T04:26:44.178Z,1011.41
2018-07-19T04:27:44.098Z,1011.42
2018-07-19T04:28:44.135Z,1011.44
2018-07-19T04:29:44.126Z,1011.47
2018-07-19T04:30:44.162Z,1011.44
2018-07-19T04:31:44.108Z,1011.45
2018-07-19T04:32:44.442Z,1011.45
2018-07-19T04:33:44.006Z,1011.44
2018-07-19T04:34:44.034Z,1011.47
2018-07-19T04:35:43.971Z,1011.51
2018-07-19T04:36:44.022Z,1011.52
2018-07-19T04:37:43.887Z,1011.53
2018-07-19T04:38:44.094Z,1011.54
2018-07-19T04:39:44.332Z,1011.56
2018-07-19T04:40:43.911Z,1011.53
2018-07-19T04:41:43.875Z,1011.55
2018-07-19T04:42:43.901Z,1011.54
2018-07-19T04:43:43.826Z,1011.56
2018-07-19T04:44:43.827Z,1011.59
2018-07-19T04:45:43.798Z,1011.60
2018-07-19T04:46:44.192Z,1011.58
2018-07-19T04:47:43.811Z,1011.62
2018-07-19T04:48:43.836Z,1011.66
2018-07-19T04:49:43.710Z,1011.65
2018-07-19T04:50:43.672Z,1011.64
2018-07-19T04:51:43.696Z,1011.65
2018-07-19T04:52:43.634Z,1011.69
2018-07-19T04:53:43.882Z,1011.68
2018-07-19T04:54:43.697Z,1011.68
2018-07-19T04:55:43.593Z,1011.72
2018-07-19T04:56:43.560Z,1011.74
2018-07-19T04:57:43.543Z,1011.72
2018-07-19T04:58:43.893Z,1011.73
2018-07-19T04:59:43.824Z,1011.78
2018-07-19T05:00:43.495Z,1011.73
2018-07-19T05:01:43.501Z,1011.75
2018-07-19T05:02:43.471Z,1011.78
2018-07-19T05:03:43.445Z,1011.79
2018-07-19T05:04:43.456Z,1011.75
2018-07-19T05:05:43.839Z,1011.76
2018-07-19T05:06:43.405Z,1011.82
2018-07-19T05:07:43.780Z,1011.79
2018-07-19T05:08:44.166Z,1011.81
2018-07-19T05:09:43.426Z,1011.77
2018-07-19T05:10:43.844Z,1011.83
2018-07-19T05:11:43.860Z,1011.82
2018-07-19T05:12:43.456Z,1011.82
2018-07-19T05:13:43.319Z,1011.82
2018-07-19T05:14:43.315Z,1011.80
2018-07-19T05:15:43.338Z,1011.81
2018-07-19T05:16:43.380Z,1011.82
2018-07-19T05:17:43.702Z,1011.81
2018-07-19T05:18:43.241Z,1011.82
2018-07-19T05:19:43.258Z,1011.81
2018-07-19T05:20:43.184Z,1011.81
2018-07-19T05:21:43.227Z,1011.82
2018-07-19T05:22:43.348Z,1011.80
2018-07-19T05:23:43.499Z,1011.83
2018-07-19T05:24:43.151Z,1011.79
2018-07-19T05:25:43.170Z,1011.74
2018-07-19T05:26:43.105Z,1011.81
2018-07-19T05:27:43.395Z,1011.77
2018-07-19T05:28:43.182Z,1011.73
2018-07-19T05:29:43.507Z,1011.76
2018-07-19T05:30:43.291Z,1011.76
2018-07-19T05:31:43.050Z,1011.80
2018-07-19T05:32:43.042Z,1011.78
2018-07-19T05:33:43.006Z,1011.79
2018-07-19T05:34:43.049Z,1011.77
2018-07-19T05:35:43.328Z,1011.78
2018-07-19T05:36:42.999Z,1011.76
2018-07-19T05:37:42.935Z,1011.80
2018-07-19T05:38:42.912Z,1011.80
2018-07-19T05:39:42.997Z,1011.78
2018-07-19T05:40:42.900Z,1011.80
2018-07-19T05:41:42.936Z,1011.83
2018-07-19T05:42:43.229Z,1011.83
2018-07-19T05:43:42.854Z,1011.81
2018-07-19T05:44:42.825Z,1011.84
2018-07-19T05:45:42.823Z,1011.83
2018-07-19T05:46:42.799Z,1011.84
2018-07-19T05:47:42.793Z,1011.82
2018-07-19T05:48:42.840Z,1011.83
2018-07-19T05:49:43.154Z,1011.86
2018-07-19T05:50:42.763Z,1011.86
2018-07-19T05:51:42.747Z,1011.85
2018-07-19T05:52:42.686Z,1011.89
2018-07-19T05:53:42.726Z,1011.88
2018-07-19T05:54:42.723Z,1011.91
2018-07-19T05:55:43.016Z,1011.88
2018-07-19T05:56:42.685Z,1011.87
2018-07-19T05:57:42.575Z,1011.89
2018-07-19T05:58:42.615Z,1011.91
2018-07-19T05:59:42.601Z,1011.85
2018-07-19T06:00:42.609Z,1011.87
2018-07-19T06:01:42.612Z,1011.89
2018-07-19T06:02:42.852Z,1011.89
2018-07-19T06:03:42.500Z,1011.89
2018-07-19T06:04:42.531Z,1011.86
2018-07-19T06:05:42.460Z,1011.86
2018-07-19T06:06:42.429Z,1011.86
